Time;durP1;ratioP1;P1;durP2;ratioP2;P2;SDS_P1;SDS_P2;PMS_P1;PMS_P2;Temp;Humidity;BMP_temperature;BMP_pressure;BME280_temperature;BME280_humidity;BME280_pressure;Samples;Min_cycle;Max_cycle;Signal;HPM_P1;HPM_P2
2022/09/12 00:01:05;;;;;;;;;;;;;;;23.92;60.38;99589.56;7316155;19;129054;-41
2022/09/12 00:03:30;;;;;;;;;;;;;;;23.92;59.68;99585.13;7314800;19;129341;-41
2022/09/12 00:05:55;;;;;;;;;;;;;;;23.90;60.16;99576.59;7315929;19;129009;-38
2022/09/12 00:08:21;;;;;;;;;;;;;;;23.92;59.72;99574.63;7314866;19;129169;-40
2022/09/12 00:10:46;;;;;;;;;;;;;;;23.91;59.54;99567.75;7314866;19;129600;-38
2022/09/12 00:13:11;;;;;;;;;;;;;;;23.90;60.04;99573.97;7315493;19;129294;-41
2022/09/12 00:15:38;;;;;;;;;;;;;;;23.89;59.71;99572.31;7312288;19;129961;-39
2022/09/12 00:18:03;;;;;;;;;;;;;;;23.93;60.28;99571.00;7314434;19;129162;-40
2022/09/12 00:20:28;;;;;;;;;;;;;;;23.94;59.65;99571.84;7315626;19;129322;-39
2022/09/12 00:22:53;;;;;;;;;;;;;;;23.95;60.06;99573.47;7311630;19;129373;-41
2022/09/12 00:25:18;;;;;;;;;;;;;;;23.88;59.79;99561.97;7315200;19;129219;-40
2022/09/12 00:27:44;;;;;;;;;;;;;;;23.95;60.18;99569.06;7313788;19;129661;-41
2022/09/12 00:30:09;;;;;;;;;;;;;;;23.96;59.51;99575.16;7313606;19;129808;-40
2022/09/12 00:32:35;;;;;;;;;;;;;;;23.93;59.69;99573.66;7314580;19;129977;-40
2022/09/12 00:35:01;;;;;;;;;;;;;;;23.82;59.33;99552.91;7313389;19;129610;-41
2022/09/12 00:37:26;;;;;;;;;;;;;;;23.93;59.89;99576.28;7313995;19;129458;-38
2022/09/12 00:39:52;;;;;;;;;;;;;;;23.92;59.65;99574.63;7311806;19;128926;-40
2022/09/12 00:42:17;;;;;;;;;;;;;;;23.94;60.34;99572.69;7312761;19;129305;-41
2022/09/12 00:44:44;;;;;;;;;;;;;;;23.89;59.64;99567.06;7314412;19;129369;-40
2022/09/12 00:47:13;;;;;;;;;;;;;;;23.85;59.57;99568.34;7313986;19;130429;-39
2022/09/12 00:49:38;;;;;;;;;;;;;;;23.88;59.78;99564.59;7311367;19;128830;-40
2022/09/12 00:52:11;;;;;;;;;;;;;;;23.90;59.82;99566.09;7314587;19;129119;-39
2022/09/12 00:54:40;;;;;;;;;;;;;;;23.91;59.83;99559.88;7313451;19;129473;-38
2022/09/12 00:57:08;;;;;;;;;;;;;;;23.90;59.93;99563.44;7312409;19;129634;-39
2022/09/12 00:59:38;;;;;;;;;;;;;;;23.90;59.82;99568.72;7311118;19;129241;-38
2022/09/12 01:02:03;;;;;;;;;;;;;;;23.92;60.18;99563.28;7312973;19;129439;-38
2022/09/12 01:04:29;;;;;;;;;;;;;;;23.90;59.82;99568.72;7312692;19;129073;-40
2022/09/12 01:06:55;;;;;;;;;;;;;;;23.87;59.83;99566.41;7314571;19;130395;-41
2022/09/12 01:09:21;;;;;;;;;;;;;;;23.89;60.39;99563.63;7311168;19;129887;-38
2022/09/12 01:11:47;;;;;;;;;;;;;;;23.90;60.14;99550.31;7313335;19;129446;-41
2022/09/12 01:14:13;;;;;;;;;;;;;;;23.93;59.64;99554.47;7311382;19;131788;-39
2022/09/12 01:16:39;;;;;;;;;;;;;;;23.89;59.89;99559.19;7313384;19;129455;-41
2022/09/12 01:19:14;;;;;;;;;;;;;;;23.90;60.02;99560.81;7311075;19;129219;-37
2022/09/12 01:21:58;;;;;;;;;;;;;;;23.91;59.82;99559.88;7313505;19;129842;-41
2022/09/12 01:24:37;;;;;;;;;;;;;;;23.92;60.04;99563.28;7313740;19;129994;-41
2022/09/12 01:27:18;;;;;;;;;;;;;;;23.94;60.62;99551.69;7313030;19;129817;-41
2022/09/12 01:30:02;;;;;;;;;;;;;;;23.96;59.66;99562.84;7307379;19;129790;-38
2022/09/12 01:32:56;;;;;;;;;;;;;;;23.85;60.32;99546.53;7312496;19;129455;-40
2022/09/12 01:35:30;;;;;;;;;;;;;;;23.94;60.43;99561.34;7310080;19;129532;-40
2022/09/12 01:37:55;;;;;;;;;;;;;;;23.90;60.08;99555.56;7311473;19;130185;-40
2022/09/12 01:40:30;;;;;;;;;;;;;;;23.91;59.81;99561.66;7313291;19;129130;-39
2022/09/12 01:43:02;;;;;;;;;;;;;;;23.88;59.72;99556.72;7311962;19;129349;-41
2022/09/12 01:45:31;;;;;;;;;;;;;;;23.87;59.93;99550.63;7311381;19;130382;-40
2022/09/12 01:47:57;;;;;;;;;;;;;;;23.87;60.00;99553.28;7311998;19;129624;-40
2022/09/12 01:50:26;;;;;;;;;;;;;;;23.90;60.29;99539.81;7312374;19;128945;-41
2022/09/12 01:53:03;;;;;;;;;;;;;;;23.94;60.38;99546.44;7311570;19;128812;-40
2022/09/12 01:55:32;;;;;;;;;;;;;;;23.86;59.59;99533.25;7312043;19;131456;-38
2022/09/12 01:58:05;;;;;;;;;;;;;;;23.86;60.21;99543.75;7312409;19;129536;-38
2022/09/12 02:00:35;;;;;;;;;;;;;;;23.90;60.30;99547.69;7312499;19;129182;-40
2022/09/12 02:03:07;;;;;;;;;;;;;;;23.91;59.68;99549.38;7312038;19;129242;-39
2022/09/12 02:05:34;;;;;;;;;;;;;;;23.92;60.19;99537.88;7312194;19;130828;-40
2022/09/12 02:08:07;;;;;;;;;;;;;;;23.92;60.15;99537.03;7311620;19;129525;-39
2022/09/12 02:10:36;;;;;;;;;;;;;;;23.93;59.89;99538.69;7310490;19;129809;-41
2022/09/12 02:13:11;;;;;;;;;;;;;;;23.85;59.87;99522.91;7311121;19;130137;-39
2022/09/12 02:15:39;;;;;;;;;;;;;;;23.90;59.66;99534.56;7310588;19;129240;-41
2022/09/12 02:18:05;;;;;;;;;;;;;;;23.91;59.82;99531.00;7310912;19;129636;-36
2022/09/12 02:20:33;;;;;;;;;;;;;;;23.92;59.62;99526.53;7310839;19;129575;-38
2022/09/12 02:22:59;;;;;;;;;;;;;;;23.94;60.53;99532.47;7310660;19;130772;-39
2022/09/12 02:25:26;;;;;;;;;;;;;;;23.89;59.69;99525.06;7311892;19;129327;-39
2022/09/12 02:28:00;;;;;;;;;;;;;;;23.80;59.28;99512.84;7310489;19;130275;-35
2022/09/12 02:30:28;;;;;;;;;;;;;;;23.91;60.25;99527.53;7309118;19;130627;-40
2022/09/12 02:33:13;;;;;;;;;;;;;;;23.91;59.67;99527.53;7310283;19;129486;-37
2022/09/12 02:35:56;;;;;;;;;;;;;;;23.92;59.96;99522.13;7308998;19;130574;-37
2022/09/12 02:38:28;;;;;;;;;;;;;;;23.98;60.34;99531.22;7310755;19;129255;-40
2022/09/12 02:40:54;;;;;;;;;;;;;;;23.95;59.83;99524.44;7309751;19;129227;-38
2022/09/12 02:43:19;;;;;;;;;;;;;;;23.95;60.66;99520.97;7315688;19;129011;-38
2022/09/12 02:45:44;;;;;;;;;;;;;;;23.85;60.13;99500.09;7318071;19;129378;-39
2022/09/12 02:48:13;;;;;;;;;;;;;;;23.96;60.23;99518.22;7317317;19;129402;-39
2022/09/12 02:50:39;;;;;;;;;;;;;;;23.94;59.77;99509.66;7316371;19;128975;-39
2022/09/12 02:53:05;;;;;;;;;;;;;;;23.96;60.20;99512.97;7317636;19;129267;-37
2022/09/12 02:55:32;;;;;;;;;;;;;;;23.95;59.57;99513.91;7315450;19;129208;-39
2022/09/12 02:57:58;;;;;;;;;;;;;;;23.93;59.57;99518.50;7317893;19;130342;-39
2022/09/12 03:00:24;;;;;;;;;;;;;;;23.91;60.26;99515.22;7318315;19;130214;-38
2022/09/12 03:03:01;;;;;;;;;;;;;;;23.95;60.38;99506.03;7316773;19;129083;-37
2022/09/12 03:05:26;;;;;;;;;;;;;;;23.99;59.89;99512.66;7317637;19;129070;-36
2022/09/12 03:07:59;;;;;;;;;;;;;;;23.84;59.48;99502.88;7317211;19;130726;-38
2022/09/12 03:10:28;;;;;;;;;;;;;;;23.86;60.11;99528.00;7316274;19;129931;-37
2022/09/12 03:12:53;;;;;;;;;;;;;;;23.88;59.63;99523.38;7316310;19;129136;-39
2022/09/12 03:15:26;;;;;;;;;;;;;;;23.91;59.50;99532.78;7316791;19;130189;-38
2022/09/12 03:18:01;;;;;;;;;;;;;;;23.93;59.78;99526.38;7318378;19;129522;-39
2022/09/12 03:20:43;;;;;;;;;;;;;;;23.90;59.55;99526.69;7316738;19;129581;-39
2022/09/12 03:23:13;;;;;;;;;;;;;;;23.95;59.94;99521.78;7316971;19;128979;-37
2022/09/12 03:25:44;;;;;;;;;;;;;;;23.96;60.44;99523.47;7317011;19;130011;-39
2022/09/12 03:28:12;;;;;;;;;;;;;;;23.89;60.08;99516.34;7316825;19;129225;-38
2022/09/12 03:30:39;;;;;;;;;;;;;;;23.95;59.61;99527.06;7315930;19;129212;-40
2022/09/12 03:33:04;;;;;;;;;;;;;;;23.94;60.15;99519.34;7316352;19;129612;-38
2022/09/12 03:35:30;;;;;;;;;;;;;;;23.96;59.44;99527.88;7314315;19;129141;-39
2022/09/12 03:37:55;;;;;;;;;;;;;;;23.95;59.95;99527.06;7316155;19;129266;-38
2022/09/12 03:40:20;;;;;;;;;;;;;;;23.93;59.63;99522.94;7315539;19;129219;-39
2022/09/12 03:42:46;;;;;;;;;;;;;;;23.95;59.53;99520.97;7316806;19;129508;-37
2022/09/12 03:45:11;;;;;;;;;;;;;;;23.94;59.57;99524.59;7314438;19;129131;-38
2022/09/12 03:47:36;;;;;;;;;;;;;;;23.92;59.95;99524.75;7316204;19;129218;-38
2022/09/12 03:50:02;;;;;;;;;;;;;;;23.93;60.31;99523.75;7313786;19;129550;-40
2022/09/12 03:52:27;;;;;;;;;;;;;;;23.94;59.78;99525.41;7315345;19;129134;-38
2022/09/12 03:54:52;;;;;;;;;;;;;;;23.95;60.06;99526.22;7314549;19;129093;-40
2022/09/12 03:57:18;;;;;;;;;;;;;;;23.95;59.92;99532.31;7314155;19;129563;-35
2022/09/12 03:59:43;;;;;;;;;;;;;;;23.93;59.77;99525.56;7312749;19;129156;-40
2022/09/12 04:02:11;;;;;;;;;;;;;;;23.89;59.75;99525.06;7314095;19;129438;-38
2022/09/12 04:04:36;;;;;;;;;;;;;;;23.89;60.11;99526.84;7314987;19;129416;-40
2022/09/12 04:07:02;;;;;;;;;;;;;;;23.91;60.30;99528.34;7314734;19;130988;-37
2022/09/12 04:09:27;;;;;;;;;;;;;;;23.82;59.80;99516.16;7312895;19;129170;-38
2022/09/12 04:11:52;;;;;;;;;;;;;;;23.88;59.30;99526.03;7314939;19;129197;-37
2022/09/12 04:14:17;;;;;;;;;;;;;;;23.90;59.94;99524.06;7315499;19;130734;-38
2022/09/12 04:16:43;;;;;;;;;;;;;;;23.88;59.29;99526.03;7312850;19;129606;-38
2022/09/12 04:19:10;;;;;;;;;;;;;;;23.92;59.85;99531.78;7313324;19;128963;-37
2022/09/12 04:21:35;;;;;;;;;;;;;;;23.90;60.24;99529.31;7315649;19;129089;-39
2022/09/12 04:24:00;;;;;;;;;;;;;;;23.91;59.69;99531.00;7315084;19;129104;-38
2022/09/12 04:26:28;;;;;;;;;;;;;;;23.81;59.11;99522.41;7314523;19;130274;-39
2022/09/12 04:28:55;;;;;;;;;;;;;;;23.87;59.31;99529.63;7314405;19;129701;-38
2022/09/12 04:31:21;;;;;;;;;;;;;;;23.75;59.78;99524.81;7314614;19;128965;-38
2022/09/12 04:33:47;;;;;;;;;;;;;;;23.80;59.59;99525.97;7315313;19;130223;-37
2022/09/12 04:36:15;;;;;;;;;;;;;;;23.87;59.45;99534.06;7311918;19;130679;-39
2022/09/12 04:38:41;;;;;;;;;;;;;;;23.87;59.67;99537.50;7314161;19;130932;-37
2022/09/12 04:41:13;;;;;;;;;;;;;;;23.85;59.78;99531.59;7313738;19;129472;-37
2022/09/12 04:43:38;;;;;;;;;;;;;;;23.87;59.91;99534.88;7313931;19;129356;-38
2022/09/12 04:46:07;;;;;;;;;;;;;;;23.86;59.86;99549.00;7313355;19;129420;-40
2022/09/12 04:48:33;;;;;;;;;;;;;;;23.87;60.06;99545.41;7313325;19;129017;-38
2022/09/12 04:51:07;;;;;;;;;;;;;;;23.90;59.47;99547.69;7313662;19;129259;-40
2022/09/12 04:53:32;;;;;;;;;;;;;;;23.88;60.16;99552.28;7312235;19;129547;-37
2022/09/12 04:56:02;;;;;;;;;;;;;;;23.91;59.50;99545.91;7313275;19;129296;-38
2022/09/12 04:58:27;;;;;;;;;;;;;;;23.89;59.91;99546.06;7311321;19;129921;-37
2022/09/12 05:00:52;;;;;;;;;;;;;;;23.85;59.46;99549.97;7312551;19;129708;-39
2022/09/12 05:03:18;;;;;;;;;;;;;;;23.90;60.27;99562.66;7315170;19;129037;-37
2022/09/12 05:05:43;;;;;;;;;;;;;;;23.88;59.21;99552.28;7311836;19;129167;-38
2022/09/12 05:08:08;;;;;;;;;;;;;;;23.88;59.19;99552.28;7314897;19;129547;-37
2022/09/12 05:10:33;;;;;;;;;;;;;;;23.84;59.87;99550.97;7312324;19;129815;-38
2022/09/12 05:12:58;;;;;;;;;;;;;;;23.82;60.07;99550.28;7312308;19;129114;-39
2022/09/12 05:15:24;;;;;;;;;;;;;;;23.82;59.65;99558.16;7311906;19;130385;-37
2022/09/12 05:17:50;;;;;;;;;;;;;;;23.81;60.01;99561.78;7313797;19;128865;-38
2022/09/12 05:20:16;;;;;;;;;;;;;;;23.78;59.87;99556.84;7310539;19;129078;-37
2022/09/12 05:22:41;;;;;;;;;;;;;;;23.80;60.28;99560.09;7311008;19;130840;-39
2022/09/12 05:25:07;;;;;;;;;;;;;;;23.79;59.50;99558.47;7311681;19;129821;-37
2022/09/12 05:27:32;;;;;;;;;;;;;;;23.67;60.00;99549.19;7310062;19;128993;-37
2022/09/12 05:29:57;;;;;;;;;;;;;;;23.76;59.64;99558.78;7309347;19;129266;-38
2022/09/12 05:32:23;;;;;;;;;;;;;;;23.79;59.90;99562.91;7312109;19;130793;-38
2022/09/12 05:34:48;;;;;;;;;;;;;;;23.78;59.70;99562.09;7311383;19;129476;-38
2022/09/12 05:37:13;;;;;;;;;;;;;;;23.70;59.66;99551.50;7310344;19;128995;-38
2022/09/12 05:39:39;;;;;;;;;;;;;;;23.79;60.18;99566.34;7311409;19;129550;-37
2022/09/12 05:42:04;;;;;;;;;;;;;;;23.77;59.52;99567.47;7311582;19;129347;-38
2022/09/12 05:44:30;;;;;;;;;;;;;;;23.71;59.59;99571.56;7313147;19;130629;-39
2022/09/12 05:46:55;;;;;;;;;;;;;;;23.73;59.28;99574.03;7312831;19;131043;-39
2022/09/12 05:49:20;;;;;;;;;;;;;;;23.72;60.12;99575.81;7311991;19;129239;-39
2022/09/12 05:51:46;;;;;;;;;;;;;;;23.71;60.03;99584.69;7309972;19;129995;-39
2022/09/12 05:54:12;;;;;;;;;;;;;;;23.69;59.59;99578.75;7313261;19;129353;-37
2022/09/12 05:56:42;;;;;;;;;;;;;;;23.74;58.69;99587.00;7310032;19;130696;-37
2022/09/12 05:59:15;;;;;;;;;;;;;;;23.78;59.33;99587.50;7311881;19;129438;-36
2022/09/12 06:01:40;;;;;;;;;;;;;;;23.76;59.70;99590.28;7311607;19;130842;-38
2022/09/12 06:04:06;;;;;;;;;;;;;;;23.77;59.25;99581.44;7313441;19;129763;-38
2022/09/12 06:06:34;;;;;;;;;;;;;;;23.74;59.93;99587.00;7312535;19;129129;-37
2022/09/12 06:09:00;;;;;;;;;;;;;;;23.81;59.76;99577.53;7310954;19;129083;-37
2022/09/12 06:11:27;;;;;;;;;;;;;;;23.75;59.54;99566.81;7311209;19;129866;-38
2022/09/12 06:13:52;;;;;;;;;;;;;;;23.86;59.08;99584.94;7313054;19;129321;-39
2022/09/12 06:16:19;;;;;;;;;;;;;;;23.87;60.04;99587.41;7312575;19;129683;-39
2022/09/12 06:18:47;;;;;;;;;;;;;;;23.87;59.07;99581.31;7319007;19;130085;-36
2022/09/12 06:21:13;;;;;;;;;;;;;;;23.88;60.08;99582.97;7318636;19;129404;-40
2022/09/12 06:23:39;;;;;;;;;;;;;;;23.87;59.70;99591.81;7318211;19;129505;-40
2022/09/12 06:26:05;;;;;;;;;;;;;;;23.81;59.81;99585.41;7317924;19;128994;-38
2022/09/12 06:28:31;;;;;;;;;;;;;;;23.82;59.64;99587.03;7316821;19;130774;-40
2022/09/12 06:31:10;;;;;;;;;;;;;;;23.80;59.27;99583.75;7319076;19;129142;-35
2022/09/12 06:33:36;;;;;;;;;;;;;;;23.82;59.36;99581.78;7318342;19;130455;-37
2022/09/12 06:36:05;;;;;;;;;;;;;;;23.77;59.07;99586.69;7317410;19;129268;-38
2022/09/12 06:38:31;;;;;;;;;;;;;;;23.79;60.01;99591.78;7317130;19;129172;-38
2022/09/12 06:40:57;;;;;;;;;;;;;;;23.82;59.63;99594.91;7318446;19;130350;-36
2022/09/12 06:43:22;;;;;;;;;;;;;;;23.86;59.68;99590.19;7315620;19;129317;-37
2022/09/12 06:45:48;;;;;;;;;;;;;;;23.89;60.10;99589.88;7316217;19;129848;-40
2022/09/12 06:48:14;;;;;;;;;;;;;;;23.89;59.92;99595.13;7318446;19;128822;-40
2022/09/12 06:50:39;;;;;;;;;;;;;;;23.92;60.08;99600.91;7318621;19;129588;-38
2022/09/12 06:53:04;;;;;;;;;;;;;;;23.94;59.68;99598.94;7317417;19;130136;-38
2022/09/12 06:55:29;;;;;;;;;;;;;;;23.91;59.42;99607.13;7317530;19;129332;-39
2022/09/12 06:57:54;;;;;;;;;;;;;;;23.91;59.58;99598.44;7317955;19;129492;-37
2022/09/12 07:00:20;;;;;;;;;;;;;;;23.94;60.29;99598.94;7314786;19;129004;-38
2022/09/12 07:02:45;;;;;;;;;;;;;;;23.97;60.07;99603.88;7316048;19;129220;-37
2022/09/12 07:05:10;;;;;;;;;;;;;;;23.98;59.38;99604.75;7316904;19;129305;-39
2022/09/12 07:07:35;;;;;;;;;;;;;;;24.02;60.26;99604.28;7316989;19;129700;-35
2022/09/12 07:10:01;;;;;;;;;;;;;;;23.94;59.86;99593.69;7314057;19;130791;-38
2022/09/12 07:12:27;;;;;;;;;;;;;;;23.98;59.35;99610.81;7315115;19;129395;-40
2022/09/12 07:14:53;;;;;;;;;;;;;;;24.01;60.24;99610.53;7319100;19;129639;-38
2022/09/12 07:17:18;;;;;;;;;;;;;;;23.98;60.11;99616.06;7318158;19;129111;-37
2022/09/12 07:19:43;;;;;;;;;;;;;;;24.06;60.15;99616.13;7316554;19;129238;-37
2022/09/12 07:22:08;;;;;;;;;;;;;;;24.03;59.72;99621.66;7315297;19;129415;-38
2022/09/12 07:24:33;;;;;;;;;;;;;;;23.99;59.94;99622.13;7317973;19;128751;-37
2022/09/12 07:26:59;;;;;;;;;;;;;;;24.00;60.30;99624.59;7317023;19;129659;-38
2022/09/12 07:29:24;;;;;;;;;;;;;;;23.94;60.75;99613.88;7312088;19;129346;-37
2022/09/12 07:31:49;;;;;;;;;;;;;;;24.01;60.52;99621.03;7317236;19;130936;-38
2022/09/12 07:34:16;;;;;;;;;;;;;;;23.93;60.35;99618.28;7317471;19;129398;-39
2022/09/12 07:36:41;;;;;;;;;;;;;;;23.97;59.45;99624.88;7315336;19;129108;-38
2022/09/12 07:39:06;;;;;;;;;;;;;;;24.03;59.28;99619.03;7314715;19;129600;-37
2022/09/12 07:41:32;;;;;;;;;;;;;;;24.05;59.51;99619.72;7315267;19;131383;-37
2022/09/12 07:43:58;;;;;;;;;;;;;;;24.05;59.70;99617.09;7317190;19;129897;-38
2022/09/12 07:46:25;;;;;;;;;;;;;;;24.06;58.93;99617.94;7316493;19;130130;-38
2022/09/12 07:48:51;;;;;;;;;;;;;;;24.05;58.23;99622.34;7316048;19;130389;-37
2022/09/12 07:51:17;;;;;;;;;;;;;;;24.02;58.34;99621.81;7316192;19;130432;-38
2022/09/12 07:53:43;;;;;;;;;;;;;;;23.93;58.72;99618.28;7315613;19;129379;-37
2022/09/12 07:56:09;;;;;;;;;;;;;;;23.93;58.47;99622.72;7315310;19;129233;-37
2022/09/12 07:58:35;;;;;;;;;;;;;;;23.88;58.23;99620.56;7315743;19;129718;-38
2022/09/12 08:01:19;;;;;;;;;;;;;;;23.91;57.98;99622.88;7316825;19;129530;-38
2022/09/12 08:03:46;;;;;;;;;;;;;;;24.01;57.99;99626.28;7314744;19;129980;-37
2022/09/12 08:06:19;;;;;;;;;;;;;;;23.97;59.16;99614.38;7317329;19;128954;-37
2022/09/12 08:08:44;;;;;;;;;;;;;;;24.05;59.01;99638.09;7313118;19;130481;-39
2022/09/12 08:11:11;;;;;;;;;;;;;;;24.05;58.57;99632.84;7313650;19;130766;-42
2022/09/12 08:13:37;;;;;;;;;;;;;;;24.08;59.21;99637.78;7314225;19;129343;-38
2022/09/12 08:16:04;;;;;;;;;;;;;;;24.09;59.33;99631.56;7314283;19;128937;-38
2022/09/12 08:18:31;;;;;;;;;;;;;;;24.12;58.81;99633.88;7314616;19;129749;-38
2022/09/12 08:21:00;;;;;;;;;;;;;;;24.02;58.72;99627.91;7315929;19;130445;-38
2022/09/12 08:23:27;;;;;;;;;;;;;;;24.14;59.47;99629.31;7315296;19;128742;-38
2022/09/12 08:25:54;;;;;;;;;;;;;;;24.09;58.77;99628.94;7314195;19;128988;-40
2022/09/12 08:28:19;;;;;;;;;;;;;;;23.98;59.76;99631.00;7312497;19;129118;-39
2022/09/12 08:30:45;;;;;;;;;;;;;;;24.00;59.74;99629.88;7314363;19;129252;-39
2022/09/12 08:33:10;;;;;;;;;;;;;;;24.11;59.48;99632.22;7310495;19;129531;-38
2022/09/12 08:35:35;;;;;;;;;;;;;;;24.16;59.81;99629.94;7315012;19;129332;-36
2022/09/12 08:38:00;;;;;;;;;;;;;;;24.19;59.04;99628.84;7315792;19;129837;-38
2022/09/12 08:40:26;;;;;;;;;;;;;;;24.10;59.11;99622.72;7314755;19;129681;-37
2022/09/12 08:42:59;;;;;;;;;;;;;;;24.18;59.88;99628.00;7314261;19;129012;-38
2022/09/12 08:45:50;;;;;;;;;;;;;;;24.18;59.68;99627.19;7314597;19;129212;-39
2022/09/12 08:48:15;;;;;;;;;;;;;;;24.23;59.74;99628.38;7313680;19;130013;-38
2022/09/12 08:50:43;;;;;;;;;;;;;;;24.21;59.57;99634.78;7315119;19;129348;-38
2022/09/12 08:53:13;;;;;;;;;;;;;;;24.23;59.70;99631.00;7314930;19;129106;-36
2022/09/12 08:55:41;;;;;;;;;;;;;;;24.21;59.29;99627.69;7312943;19;130702;-38
2022/09/12 08:58:14;;;;;;;;;;;;;;;24.21;59.42;99624.25;7314248;19;129854;-36
2022/09/12 09:00:45;;;;;;;;;;;;;;;24.20;60.28;99620.81;7312197;19;129321;-37
2022/09/12 09:03:29;;;;;;;;;;;;;;;24.19;59.38;99623.59;7314026;19;130303;-38
2022/09/12 09:06:07;;;;;;;;;;;;;;;24.19;59.83;99623.59;7314021;19;128746;-37
2022/09/12 09:08:41;;;;;;;;;;;;;;;24.20;59.64;99625.22;7313252;19;129050;-38
2022/09/12 09:11:23;;;;;;;;;;;;;;;24.20;59.73;99623.41;7310751;19;145619;-38
2022/09/12 09:16:34;;;;;;;;;;;;;;;24.23;60.30;99624.91;7312119;19;129068;-40
2022/09/12 09:19:01;;;;;;;;;;;;;;;24.22;59.68;99618.84;7312460;19;129286;-36
2022/09/12 09:21:35;;;;;;;;;;;;;;;24.19;59.88;99619.16;7314090;19;129597;-37
2022/09/12 09:24:03;;;;;;;;;;;;;;;24.21;59.89;99622.44;7313464;19;129856;-38
2022/09/12 09:26:41;;;;;;;;;;;;;;;24.18;60.17;99625.38;7311105;19;129621;-37
2022/09/12 09:29:15;;;;;;;;;;;;;;;24.18;60.04;99621.94;7311024;19;129927;-40
2022/09/12 09:31:41;;;;;;;;;;;;;;;24.07;60.15;99599.38;7311466;19;129388;-40
2022/09/12 09:34:14;;;;;;;;;;;;;;;24.10;59.22;99609.56;7312111;19;128899;-43
2022/09/12 09:36:48;;;;;;;;;;;;;;;24.09;59.38;99612.34;7309723;19;129352;-38
2022/09/12 09:39:26;;;;;;;;;;;;;;;24.09;59.78;99602.69;7312018;19;129177;-35
2022/09/12 09:41:51;;;;;;;;;;;;;;;24.18;59.62;99606.19;7314073;19;130887;-37
2022/09/12 09:44:16;;;;;;;;;;;;;;;24.14;60.23;99610.09;7313805;19;131113;-40
2022/09/12 09:46:42;;;;;;;;;;;;;;;24.10;59.58;99608.75;7313535;19;128939;-38
2022/09/12 09:49:11;;;;;;;;;;;;;;;24.11;59.37;99610.41;7312018;19;129455;-39
2022/09/12 09:51:38;;;;;;;;;;;;;;;24.12;59.94;99605.00;7316995;19;129266;-37
2022/09/12 09:54:16;;;;;;;;;;;;;;;24.15;59.29;99617.81;7320120;19;129535;-39
2022/09/12 09:56:41;;;;;;;;;;;;;;;24.05;58.53;99601.34;7314576;19;129025;-39
2022/09/12 09:59:16;;;;;;;;;;;;;;;24.17;59.56;99605.34;7319225;19;129205;-37
2022/09/12 10:01:45;;;;;;;;;;;;;;;24.15;59.17;99607.31;7317303;19;130596;-38
2022/09/12 10:04:21;;;;;;;;;;;;;;;24.08;58.91;99590.50;7319282;19;128986;-38
2022/09/12 10:06:46;;;;;;;;;;;;;;;24.14;58.24;99605.66;7319363;19;128996;-38
2022/09/12 10:09:19;;;;;;;;;;;;;;;24.19;59.26;99602.56;7318751;19;129398;-37
2022/09/12 10:11:45;;;;;;;;;;;;;;;24.20;59.21;99602.41;7315988;19;130606;-37
2022/09/12 10:14:40;;;;;;;;;;;;;;;24.25;59.65;99597.50;7319315;19;128812;-37
2022/09/12 10:17:40;;;;;;;;;;;;;;;24.25;59.64;99602.75;7316099;19;130274;-37
2022/09/12 10:20:25;;;;;;;;;;;;;;;24.23;58.94;99594.22;7312866;19;129114;-39
2022/09/12 10:22:51;;;;;;;;;;;;;;;24.11;58.08;99590.19;7318252;19;129297;-37
2022/09/12 10:25:17;;;;;;;;;;;;;;;24.20;58.29;99588.44;7318417;19;129481;-40
2022/09/12 10:27:43;;;;;;;;;;;;;;;24.20;58.15;99585.81;7318594;19;129716;-38
2022/09/12 10:30:14;;;;;;;;;;;;;;;24.27;58.24;99594.72;7317170;19;129102;-39
2022/09/12 10:32:52;;;;;;;;;;;;;;;24.28;58.57;99591.09;7318602;19;129183;-38
2022/09/12 10:35:18;;;;;;;;;;;;;;;24.23;58.31;99590.75;7318310;19;129093;-39
2022/09/12 10:38:03;;;;;;;;;;;;;;;24.24;58.10;99589.78;7317111;19;129866;-39
2022/09/12 10:40:39;;;;;;;;;;;;;;;24.21;57.76;99585.66;7318222;19;129680;-37
2022/09/12 10:43:25;;;;;;;;;;;;;;;24.24;58.17;99588.00;7318084;19;129725;-38
2022/09/12 10:45:50;;;;;;;;;;;;;;;24.14;57.14;99575.94;7318049;19;129533;-39
2022/09/12 10:48:30;;;;;;;;;;;;;;;24.26;57.18;99588.63;7317113;19;129056;-40
2022/09/12 10:50:56;;;;;;;;;;;;;;;24.25;57.18;99579.13;7317350;19;129464;-39
2022/09/12 10:53:30;;;;;;;;;;;;;;;24.27;57.32;99577.16;7316904;19;129326;-38
2022/09/12 10:56:22;;;;;;;;;;;;;;;24.19;57.41;99573.66;7318074;19;129285;-39
2022/09/12 10:58:47;;;;;;;;;;;;;;;24.19;57.32;99571.03;7313359;19;129163;-40
2022/09/12 11:01:33;;;;;;;;;;;;;;;24.15;56.56;99570.53;7318488;19;129326;-40
2022/09/12 11:03:59;;;;;;;;;;;;;;;24.08;56.83;99558.19;7315445;19;129206;-38
2022/09/12 11:06:30;;;;;;;;;;;;;;;24.19;57.16;99565.78;7318063;19;128765;-38
2022/09/12 11:09:04;;;;;;;;;;;;;;;24.13;56.48;99561.16;7318249;19;129604;-36
2022/09/12 11:11:38;;;;;;;;;;;;;;;24.11;56.95;99553.41;7317381;19;129007;-36
2022/09/12 11:14:18;;;;;;;;;;;;;;;23.97;56.41;99548.72;7318747;19;129785;-38
2022/09/12 11:16:50;;;;;;;;;;;;;;;24.07;57.35;99557.34;7317094;19;129348;-36
2022/09/12 11:19:36;;;;;;;;;;;;;;;24.09;56.93;99560.66;7316703;19;129318;-40
2022/09/12 11:22:15;;;;;;;;;;;;;;;24.03;56.55;99571.75;7317602;19;129724;-38
2022/09/12 11:24:43;;;;;;;;;;;;;;;24.02;57.45;99557.00;7317357;19;129671;-37
2022/09/12 11:27:09;;;;;;;;;;;;;;;24.05;57.05;99556.69;7318216;19;129032;-37
2022/09/12 11:29:49;;;;;;;;;;;;;;;24.01;56.91;99558.00;7315353;19;129083;-36
2022/09/12 11:32:17;;;;;;;;;;;;;;;23.98;57.72;99550.41;7316975;19;129285;-37
2022/09/12 11:35:05;;;;;;;;;;;;;;;24.03;56.91;99563.88;7317239;19;130109;-38
2022/09/12 11:37:30;;;;;;;;;;;;;;;24.02;57.12;99554.38;7314947;19;129612;-38
2022/09/12 11:39:59;;;;;;;;;;;;;;;24.02;57.00;99554.38;7315107;19;129425;-37
2022/09/12 11:42:28;;;;;;;;;;;;;;;23.98;57.02;99563.53;7317562;19;130015;-38
2022/09/12 11:45:09;;;;;;;;;;;;;;;24.03;56.68;99549.97;7316548;19;129813;-38
2022/09/12 11:47:35;;;;;;;;;;;;;;;23.99;56.43;99553.84;7317676;19;128911;-38
2022/09/12 11:50:04;;;;;;;;;;;;;;;23.98;56.70;99562.72;7315933;19;129292;-37
2022/09/12 11:52:35;;;;;;;;;;;;;;;23.95;57.48;99558.56;7316769;19;129042;-37
2022/09/12 11:55:01;;;;;;;;;;;;;;;23.96;57.54;99565.47;7316874;19;130284;-39
2022/09/12 11:57:31;;;;;;;;;;;;;;;23.98;56.95;99557.47;7313427;19;129177;-37
2022/09/12 11:59:59;;;;;;;;;;;;;;;23.94;56.84;99542.97;7314704;19;129471;-38
2022/09/12 12:02:36;;;;;;;;;;;;;;;23.96;57.06;99565.47;7316276;19;129547;-38
2022/09/12 12:05:04;;;;;;;;;;;;;;;23.99;56.81;99562.56;7315850;19;130247;-37
2022/09/12 12:07:36;;;;;;;;;;;;;;;23.98;56.98;99563.53;7315773;19;128846;-39
2022/09/12 12:10:01;;;;;;;;;;;;;;;24.00;57.39;99555.50;7314339;19;128862;-39
2022/09/12 12:12:27;;;;;;;;;;;;;;;23.97;56.51;99566.28;7315933;19;129281;-38
2022/09/12 12:14:54;;;;;;;;;;;;;;;23.97;56.65;99559.25;7314907;19;129659;-40
2022/09/12 12:17:20;;;;;;;;;;;;;;;23.97;57.50;99561.88;7315317;19;128712;-37
2022/09/12 12:19:55;;;;;;;;;;;;;;;23.98;57.14;99562.72;7315017;19;129262;-38
2022/09/12 12:22:21;;;;;;;;;;;;;;;23.97;56.87;99561.88;7314733;19;129340;-37
2022/09/12 12:24:53;;;;;;;;;;;;;;;23.97;57.06;99561.88;7315919;19;129367;-37
2022/09/12 12:27:44;;;;;;;;;;;;;;;23.97;56.80;99550.53;7316599;19;129280;-41
2022/09/12 12:30:28;;;;;;;;;;;;;;;23.96;57.03;99552.34;7313751;19;129292;-38
2022/09/12 12:33:00;;;;;;;;;;;;;;;23.95;56.45;99545.44;7314053;19;130975;-37
2022/09/12 12:35:34;;;;;;;;;;;;;;;23.97;56.99;99551.34;7315477;19;129460;-38
2022/09/12 12:37:59;;;;;;;;;;;;;;;23.95;56.53;99540.19;7313360;19;129291;-37
2022/09/12 12:40:26;;;;;;;;;;;;;;;23.94;56.63;99546.44;7313637;19;128706;-38
2022/09/12 12:42:54;;;;;;;;;;;;;;;23.98;57.22;99536.47;7315012;19;130135;-38
2022/09/12 12:45:25;;;;;;;;;;;;;;;23.97;56.31;99540.84;7315429;19;129378;-39
2022/09/12 12:47:52;;;;;;;;;;;;;;;23.96;56.50;99538.38;7314305;19;128795;-38